createdAt,value
2022-11-03T00:00:48.742Z,7.30
2022-11-03T00:02:50.538Z,7.40
2022-11-03T00:04:52.186Z,7.40
2022-11-03T00:06:54.649Z,7.40
2022-11-03T00:09:00.007Z,7.40
2022-11-03T00:11:14.312Z,7.40
2022-11-03T00:13:15.887Z,7.30
2022-11-03T00:15:17.449Z,7.10
2022-11-03T00:17:19.012Z,7.00
2022-11-03T00:19:20.860Z,7.00
2022-11-03T00:21:22.417Z,7.00
2022-11-03T00:23:34.472Z,7.00
2022-11-03T00:25:36.030Z,7.00
2022-11-03T00:27:37.558Z,7.00
2022-11-03T00:29:39.203Z,6.80
2022-11-03T00:31:42.223Z,6.80
2022-11-03T00:33:44.299Z,6.70
2022-11-03T00:35:45.853Z,6.70
2022-11-03T00:37:47.413Z,6.70
2022-11-03T00:39:48.970Z,6.70
2022-11-03T00:41:50.616Z,6.70
2022-11-03T00:43:52.462Z,6.60
2022-11-03T00:45:54.430Z,6.50
2022-11-03T00:48:15.047Z,6.50
2022-11-03T00:50:16.781Z,6.50
2022-11-03T00:52:18.334Z,6.50
2022-11-03T00:54:19.899Z,6.60
2022-11-03T00:56:26.256Z,6.60
2022-11-03T00:58:28.076Z,6.60
2022-11-03T01:00:29.628Z,6.70
2022-11-03T01:02:31.297Z,6.70
2022-11-03T01:04:51.542Z,6.60
2022-11-03T01:06:54.465Z,6.60
2022-11-03T01:08:56.145Z,6.70
2022-11-03T01:11:22.376Z,6.70
2022-11-03T01:13:23.923Z,6.60
2022-11-03T01:15:25.547Z,6.70
2022-11-03T01:17:28.213Z,6.60
2022-11-03T01:19:29.808Z,6.50
2022-11-03T01:21:31.602Z,6.50
2022-11-03T01:23:34.726Z,6.30
2022-11-03T01:25:36.368Z,6.30
2022-11-03T01:27:37.947Z,6.30
2022-11-03T01:29:39.652Z,6.40
2022-11-03T01:31:41.273Z,6.60
2022-11-03T01:33:43.613Z,6.40
2022-11-03T01:35:45.163Z,6.40
2022-11-03T01:37:46.911Z,6.50
2022-11-03T01:39:48.484Z,6.50
2022-11-03T01:41:51.325Z,6.50
2022-11-03T01:44:25.112Z,6.20
2022-11-03T01:46:28.956Z,6.10
2022-11-03T01:48:31.421Z,6.20
2022-11-03T01:50:32.984Z,6.20
2022-11-03T01:52:37.677Z,6.10
2022-11-03T01:54:40.587Z,6.20
2022-11-03T01:56:43.443Z,6.20
2022-11-03T01:58:46.828Z,6.20
2022-11-03T02:00:50.898Z,6.10
2022-11-03T02:02:53.296Z,6.10
2022-11-03T02:04:56.029Z,6.10
2022-11-03T02:07:02.428Z,6.10
2022-11-03T02:09:05.434Z,6.20
2022-11-03T02:11:25.784Z,6.20
2022-11-03T02:13:27.578Z,6.20
2022-11-03T02:15:29.621Z,6.20
2022-11-03T02:17:31.949Z,6.00
2022-11-03T02:19:55.328Z,6.00
2022-11-03T02:22:07.608Z,6.10
2022-11-03T02:24:15.450Z,6.10
2022-11-03T02:26:17.223Z,5.90
2022-11-03T02:28:20.141Z,5.70
2022-11-03T02:30:21.719Z,5.80
2022-11-03T02:32:26.717Z,5.90
2022-11-03T02:34:39.544Z,5.90
2022-11-03T02:36:50.023Z,5.80
2022-11-03T02:39:02.707Z,5.80
2022-11-03T02:41:06.887Z,5.90
2022-11-03T02:43:09.534Z,6.00
2022-11-03T02:45:16.441Z,6.00
2022-11-03T02:47:20.544Z,6.00
2022-11-03T02:49:22.107Z,6.00
2022-11-03T02:51:24.340Z,5.90
2022-11-03T02:53:27.263Z,5.70
2022-11-03T02:55:31.565Z,5.70
2022-11-03T02:57:36.185Z,5.90
2022-11-03T02:59:47.268Z,5.80
2022-11-03T03:01:55.207Z,5.90
2022-11-03T03:04:01.121Z,5.80
2022-11-03T03:06:05.618Z,5.80
2022-11-03T03:08:08.853Z,5.80
2022-11-03T03:10:12.348Z,5.60
2022-11-03T03:12:16.002Z,5.50
2022-11-03T03:14:19.583Z,5.70
2022-11-03T03:16:26.459Z,5.60
2022-11-03T03:18:37.389Z,5.40
2022-11-03T03:20:38.909Z,5.50
2022-11-03T03:22:47.196Z,5.50
2022-11-03T03:24:52.448Z,5.40
2022-11-03T03:26:58.938Z,5.30
2022-11-03T03:29:03.490Z,5.30
2022-11-03T03:31:07.484Z,5.30
2022-11-03T03:33:09.872Z,5.50
2022-11-03T03:35:14.155Z,5.50
2022-11-03T03:37:16.550Z,5.30
2022-11-03T03:39:19.705Z,5.40
2022-11-03T03:41:22.375Z,5.30
2022-11-03T03:43:25.737Z,5.50
2022-11-03T03:45:27.816Z,5.40
2022-11-03T03:47:31.264Z,5.50
2022-11-03T03:49:32.967Z,5.50
2022-11-03T03:51:34.910Z,5.40
2022-11-03T03:53:36.459Z,5.40
2022-11-03T03:55:43.094Z,5.40
2022-11-03T03:57:44.957Z,5.40
2022-11-03T03:59:46.916Z,5.30
2022-11-03T04:01:48.572Z,5.40
2022-11-03T04:03:50.258Z,5.40
2022-11-03T04:05:53.618Z,5.30
2022-11-03T04:07:55.221Z,5.10
2022-11-03T04:09:56.779Z,5.10
2022-11-03T04:12:16.966Z,5.20
2022-11-03T04:14:50.669Z,5.00
2022-11-03T04:17:10.726Z,5.40
2022-11-03T04:19:30.718Z,5.40
2022-11-03T04:21:50.683Z,5.30
2022-11-03T04:23:52.295Z,5.40
2022-11-03T04:25:54.725Z,5.40
2022-11-03T04:27:56.267Z,5.40
2022-11-03T04:29:59.928Z,5.20
2022-11-03T04:32:01.557Z,5.30
2022-11-03T04:34:04.105Z,5.20
2022-11-03T04:36:11.013Z,5.10
2022-11-03T04:38:12.552Z,5.30
2022-11-03T04:40:17.844Z,5.20
2022-11-03T04:42:20.865Z,5.10
2022-11-03T04:44:22.417Z,5.30
2022-11-03T04:46:25.962Z,5.30
2022-11-03T04:48:28.824Z,5.20
2022-11-03T04:50:30.861Z,5.30
2022-11-03T04:52:32.512Z,5.20
2022-11-03T04:54:34.123Z,5.20
2022-11-03T04:56:35.671Z,5.20
2022-11-03T04:58:37.348Z,5.10
2022-11-03T05:00:39.709Z,5.10
2022-11-03T05:02:41.897Z,5.20
2022-11-03T05:04:43.627Z,5.30
2022-11-03T05:06:51.141Z,5.30
2022-11-03T05:09:00.599Z,5.30
2022-11-03T05:11:05.415Z,5.10
2022-11-03T05:13:15.714Z,4.90
2022-11-03T05:15:30.162Z,4.80
2022-11-03T05:17:31.856Z,5.00
2022-11-03T05:19:34.131Z,5.10
2022-11-03T05:21:35.779Z,5.10
2022-11-03T05:23:39.061Z,5.10
2022-11-03T05:25:42.690Z,5.10
2022-11-03T05:27:44.360Z,5.30
2022-11-03T05:29:47.209Z,5.10
2022-11-03T05:31:49.012Z,5.10
2022-11-03T05:33:51.551Z,5.00
2022-11-03T05:35:53.427Z,5.00
2022-11-03T05:37:54.996Z,5.00
2022-11-03T05:39:58.523Z,4.90
2022-11-03T05:42:02.804Z,4.90
2022-11-03T05:44:16.496Z,4.90
2022-11-03T05:46:18.056Z,4.90
2022-11-03T05:48:31.910Z,4.90
2022-11-03T05:50:34.390Z,4.70
2022-11-03T05:52:35.936Z,4.80
2022-11-03T05:54:37.596Z,4.80
2022-11-03T05:56:39.205Z,4.70
2022-11-03T05:58:42.182Z,4.70
2022-11-03T06:00:48.301Z,4.70
2022-11-03T06:02:50.361Z,4.90
2022-11-03T06:04:52.053Z,5.00
2022-11-03T06:06:54.571Z,5.00
2022-11-03T06:08:56.844Z,4.90
2022-11-03T06:11:00.043Z,4.90
2022-11-03T06:13:03.553Z,4.90
2022-11-03T06:15:10.420Z,4.70
2022-11-03T06:17:32.245Z,4.70
2022-11-03T06:19:36.846Z,4.90
2022-11-03T06:21:43.410Z,4.90
2022-11-03T06:23:46.310Z,4.80
2022-11-03T06:25:48.800Z,4.90
2022-11-03T06:27:51.170Z,4.80
2022-11-03T06:30:01.029Z,4.70
2022-11-03T06:32:02.859Z,4.70
2022-11-03T06:34:13.400Z,4.90
2022-11-03T06:36:22.542Z,4.90
2022-11-03T06:38:25.777Z,4.70
2022-11-03T06:40:30.649Z,4.80
2022-11-03T06:42:34.898Z,5.20
2022-11-03T06:44:38.196Z,5.50
2022-11-03T06:46:39.772Z,5.60
2022-11-03T06:48:41.453Z,5.80
2022-11-03T06:50:45.000Z,5.70
2022-11-03T06:54:51.705Z,5.60
2022-11-03T06:56:53.420Z,5.60
2022-11-03T06:58:56.217Z,5.50
2022-11-03T07:01:03.340Z,5.30
2022-11-03T07:03:08.274Z,5.60
2022-11-03T07:05:23.813Z,5.70
2022-11-03T07:07:25.461Z,5.60
2022-11-03T07:09:27.232Z,5.70
2022-11-03T07:11:34.511Z,5.80
2022-11-03T07:13:36.240Z,5.80
2022-11-03T07:15:39.709Z,5.80
2022-11-03T07:17:41.263Z,6.00
2022-11-03T07:19:44.749Z,6.10
2022-11-03T07:21:48.642Z,6.00
2022-11-03T07:23:50.436Z,6.00
2022-11-03T07:25:57.844Z,6.10
2022-11-03T07:28:01.233Z,5.90
2022-11-03T07:30:14.103Z,5.90
2022-11-03T07:32:18.557Z,5.90
2022-11-03T07:34:25.284Z,5.80
2022-11-03T07:36:29.256Z,5.80
2022-11-03T07:38:33.164Z,5.80
2022-11-03T07:40:35.090Z,5.80
2022-11-03T07:42:36.670Z,5.90
2022-11-03T07:44:38.515Z,6.00
2022-11-03T07:46:40.115Z,6.20
2022-11-03T07:48:49.337Z,6.10
2022-11-03T07:50:58.359Z,6.10
2022-11-03T07:52:59.918Z,6.10
2022-11-03T07:55:01.495Z,6.30
2022-11-03T07:57:11.281Z,5.90
2022-11-03T07:59:12.845Z,6.10
2022-11-03T08:01:35.118Z,6.20
2022-11-03T08:03:42.381Z,6.20
2022-11-03T08:05:43.983Z,6.40
2022-11-03T08:07:45.571Z,6.40
2022-11-03T08:09:47.234Z,6.60
2022-11-03T08:11:49.298Z,6.70
2022-11-03T08:13:51.347Z,6.90
2022-11-03T08:15:54.853Z,6.80
2022-11-03T08:17:56.463Z,6.80
2022-11-03T08:19:58.458Z,6.90
2022-11-03T08:22:00.219Z,6.90
2022-11-03T08:24:01.828Z,6.90
2022-11-03T08:26:03.598Z,7.00
2022-11-03T08:28:05.503Z,7.20
2022-11-03T08:30:07.374Z,7.20
2022-11-03T08:32:09.044Z,7.30
2022-11-03T08:34:11.111Z,7.30
2022-11-03T08:36:12.872Z,7.40
2022-11-03T08:38:14.425Z,7.50
2022-11-03T08:40:16.084Z,7.60
2022-11-03T08:42:17.785Z,7.60
2022-11-03T08:44:19.380Z,7.70
2022-11-03T08:46:20.978Z,7.90
2022-11-03T08:48:23.454Z,7.90
2022-11-03T08:50:25.206Z,7.80
2022-11-03T08:52:27.011Z,7.90
2022-11-03T08:54:28.682Z,8.00
2022-11-03T08:56:30.317Z,8.10
2022-11-03T08:58:32.191Z,8.20
2022-11-03T09:00:38.304Z,8.30
2022-11-03T09:02:42.973Z,8.40
2022-11-03T09:04:44.630Z,8.50
2022-11-03T09:06:46.286Z,8.60
2022-11-03T09:11:09.486Z,8.70
2022-11-03T09:13:11.054Z,8.80
2022-11-03T09:15:12.748Z,8.80
2022-11-03T09:17:14.315Z,9.00
2022-11-03T09:19:15.903Z,9.20
2022-11-03T09:21:17.591Z,9.20
2022-11-03T09:23:19.244Z,9.30
2022-11-03T09:25:21.033Z,9.40
2022-11-03T09:27:22.753Z,9.50
2022-11-03T09:29:24.402Z,9.70
2022-11-03T09:31:28.368Z,9.80
2022-11-03T09:33:30.154Z,9.80
2022-11-03T09:35:31.746Z,10.00
2022-11-03T09:37:33.399Z,10.10
2022-11-03T09:39:35.027Z,10.20
2022-11-03T09:41:56.105Z,10.30
2022-11-03T09:43:58.797Z,10.40
2022-11-03T09:46:00.931Z,10.60
2022-11-03T09:48:02.608Z,10.60
2022-11-03T09:50:05.064Z,10.70
2022-11-03T09:52:06.668Z,10.80
2022-11-03T09:54:12.010Z,10.90
2022-11-03T09:56:13.681Z,11.00
2022-11-03T09:58:16.774Z,11.00
2022-11-03T10:00:23.887Z,11.10
2022-11-03T10:02:25.570Z,11.10
2022-11-03T10:04:28.094Z,11.10
2022-11-03T10:06:29.658Z,11.20
2022-11-03T10:08:32.137Z,11.00
2022-11-03T10:10:34.392Z,10.90
2022-11-03T10:12:37.035Z,10.90
2022-11-03T10:14:38.984Z,10.90
2022-11-03T10:16:41.901Z,10.90
2022-11-03T10:18:43.699Z,10.90
2022-11-03T10:20:45.332Z,11.00
2022-11-03T10:22:47.627Z,11.00
2022-11-03T10:24:50.147Z,11.00
2022-11-03T10:26:54.542Z,11.10
2022-11-03T10:28:56.176Z,11.10
2022-11-03T10:31:14.282Z,11.10
2022-11-03T10:33:25.816Z,11.10
2022-11-03T10:35:34.755Z,11.10
2022-11-03T10:37:38.927Z,11.10
2022-11-03T10:39:40.548Z,11.00
2022-11-03T10:41:55.114Z,11.00
2022-11-03T10:44:05.372Z,11.00
2022-11-03T10:46:36.704Z,11.00
2022-11-03T10:48:36.211Z,11.10
2022-11-03T10:50:41.180Z,11.10
2022-11-03T10:52:42.842Z,11.10
2022-11-03T10:54:44.451Z,11.20
2022-11-03T10:56:46.994Z,11.30
2022-11-03T10:58:48.789Z,11.40
2022-11-03T11:00:50.564Z,11.50
2022-11-03T11:02:56.717Z,11.60
2022-11-03T11:04:59.388Z,11.70
2022-11-03T11:07:00.983Z,11.70
2022-11-03T11:09:04.144Z,11.90
2022-11-03T11:11:06.301Z,12.00
2022-11-03T11:13:22.978Z,12.20
2022-11-03T11:15:36.734Z,12.00
2022-11-03T11:17:42.913Z,11.90
2022-11-03T11:20:03.487Z,11.80
2022-11-03T11:22:12.737Z,11.80
2022-11-03T11:24:14.353Z,11.80
2022-11-03T11:26:15.953Z,11.70
2022-11-03T11:28:18.266Z,11.70
2022-11-03T11:30:19.941Z,11.70
2022-11-03T11:32:44.737Z,11.80
2022-11-03T11:34:46.452Z,11.90
2022-11-03T11:36:53.925Z,11.90
2022-11-03T11:38:55.684Z,11.90
2022-11-03T11:40:57.288Z,12.00
2022-11-03T11:43:13.130Z,12.00
2022-11-03T11:45:14.704Z,12.00
2022-11-03T11:47:35.006Z,12.10
2022-11-03T11:49:36.608Z,12.10
2022-11-03T11:51:38.260Z,12.00
2022-11-03T11:53:41.176Z,12.00
2022-11-03T11:55:42.812Z,12.00
2022-11-03T11:57:44.686Z,12.00
2022-11-03T11:59:47.018Z,12.00
2022-11-03T12:01:49.719Z,12.10
2022-11-03T12:03:52.218Z,12.10
2022-11-03T12:05:54.021Z,12.10
2022-11-03T12:07:55.909Z,12.10
2022-11-03T12:10:06.731Z,12.10
2022-11-03T12:12:09.089Z,12.10
2022-11-03T12:14:21.549Z,12.20
2022-11-03T12:16:36.091Z,12.10
2022-11-03T12:18:41.641Z,12.00
2022-11-03T12:20:48.135Z,12.00
2022-11-03T12:22:49.762Z,12.00
2022-11-03T12:24:51.507Z,12.00
2022-11-03T12:26:53.110Z,12.00
2022-11-03T12:28:55.012Z,12.00
2022-11-03T12:30:56.655Z,12.00
2022-11-03T12:32:58.219Z,12.00
2022-11-03T12:34:59.884Z,12.00
2022-11-03T12:37:01.485Z,12.00
2022-11-03T12:39:03.198Z,11.90
2022-11-03T12:41:24.563Z,11.90
2022-11-03T12:43:26.240Z,11.90
2022-11-03T12:45:27.854Z,11.90
2022-11-03T12:47:29.433Z,11.90
2022-11-03T12:49:31.508Z,11.90
2022-11-03T12:51:33.056Z,11.90
2022-11-03T12:53:34.649Z,11.90
2022-11-03T12:55:37.285Z,12.00
2022-11-03T12:57:40.935Z,12.00
2022-11-03T12:59:42.495Z,12.00
2022-11-03T13:01:44.362Z,12.00
2022-11-03T13:03:46.014Z,12.00
2022-11-03T13:05:48.479Z,11.90
2022-11-03T13:07:50.345Z,11.90
2022-11-03T13:09:52.085Z,12.00
2022-11-03T13:12:12.304Z,11.90
2022-11-03T13:14:13.896Z,11.90
2022-11-03T13:16:15.443Z,11.90
2022-11-03T13:18:17.054Z,11.90
2022-11-03T13:20:18.735Z,11.90
2022-11-03T13:22:20.625Z,11.90
2022-11-03T13:24:22.263Z,11.90
2022-11-03T13:26:23.912Z,11.90
2022-11-03T13:28:25.477Z,11.90
2022-11-03T13:30:27.484Z,11.90
2022-11-03T13:32:29.145Z,11.90
2022-11-03T13:34:30.928Z,11.90
2022-11-03T13:36:32.665Z,11.90
2022-11-03T13:38:34.375Z,11.90
2022-11-03T13:40:55.636Z,11.90
2022-11-03T13:42:57.786Z,11.90
2022-11-03T13:44:59.388Z,11.90
2022-11-03T13:47:01.009Z,11.90
2022-11-03T13:51:24.385Z,11.90
2022-11-03T13:55:47.688Z,11.80
2022-11-03T14:00:13.871Z,11.80
2022-11-03T14:06:41.726Z,11.80
2022-11-03T14:08:43.472Z,11.70
2022-11-03T14:10:45.071Z,11.70
2022-11-03T14:12:46.658Z,11.70
2022-11-03T14:14:48.333Z,11.70
2022-11-03T14:16:49.963Z,11.80
2022-11-03T14:18:51.649Z,11.80
2022-11-03T14:20:53.400Z,11.80
2022-11-03T14:22:54.969Z,11.70
2022-11-03T14:24:56.575Z,11.70
2022-11-03T14:26:58.163Z,11.60
2022-11-03T14:28:59.859Z,11.60
2022-11-03T14:31:03.620Z,11.60
2022-11-03T14:33:05.198Z,11.60
2022-11-03T14:35:07.639Z,11.60
2022-11-03T14:37:09.993Z,11.60
2022-11-03T14:39:11.640Z,11.60
2022-11-03T14:41:51.576Z,11.60
2022-11-03T14:43:53.177Z,11.60
2022-11-03T14:45:54.763Z,11.50
2022-11-03T14:47:56.410Z,11.60
2022-11-03T14:49:57.961Z,11.50
2022-11-03T14:52:01.516Z,11.50
2022-11-03T14:54:03.100Z,11.50
2022-11-03T14:56:04.871Z,11.50
2022-11-03T14:58:06.691Z,11.50
2022-11-03T15:00:10.212Z,11.40
2022-11-03T15:02:12.024Z,11.40
2022-11-03T15:04:13.973Z,11.40
2022-11-03T15:06:15.677Z,11.40
2022-11-03T15:08:18.293Z,11.40
2022-11-03T15:10:19.921Z,11.30
2022-11-03T15:12:21.600Z,11.30
2022-11-03T15:14:23.175Z,11.30
2022-11-03T15:16:25.140Z,11.30
2022-11-03T15:18:26.865Z,11.30
2022-11-03T15:20:28.596Z,11.30
2022-11-03T15:27:13.503Z,11.20
2022-11-03T15:29:15.083Z,11.20
2022-11-03T15:31:16.730Z,11.20
2022-11-03T15:33:18.446Z,11.20
2022-11-03T15:35:20.177Z,11.20
2022-11-03T15:37:21.837Z,11.10
2022-11-03T15:39:23.454Z,11.10
2022-11-03T15:41:25.089Z,11.10
2022-11-03T15:43:26.741Z,11.10
2022-11-03T15:45:28.308Z,11.00
2022-11-03T15:47:30.281Z,11.00
2022-11-03T15:49:31.829Z,11.00
2022-11-03T15:51:33.558Z,11.00
2022-11-03T15:53:35.122Z,11.00
2022-11-03T15:55:36.686Z,11.10
2022-11-03T15:57:38.305Z,11.00
2022-11-03T15:59:40.072Z,10.90
2022-11-03T16:01:42.384Z,11.10
2022-11-03T16:03:44.212Z,11.00
2022-11-03T16:05:45.843Z,10.90
2022-11-03T16:07:47.451Z,10.90
2022-11-03T16:09:49.604Z,10.90
2022-11-03T16:11:51.224Z,10.90
2022-11-03T16:13:52.934Z,10.90
2022-11-03T16:15:54.769Z,10.90
2022-11-03T16:18:02.589Z,10.90
2022-11-03T16:20:04.580Z,10.90
2022-11-03T16:22:06.365Z,10.90
2022-11-03T16:24:08.139Z,10.80
2022-11-03T16:26:09.949Z,10.80
2022-11-03T16:28:11.633Z,10.80
2022-11-03T16:30:13.614Z,10.80
2022-11-03T16:32:15.194Z,10.80
2022-11-03T16:34:17.090Z,10.90
2022-11-03T16:36:19.669Z,10.90
2022-11-03T16:38:21.432Z,10.90
2022-11-03T16:40:23.514Z,10.90
2022-11-03T16:42:25.116Z,10.90
2022-11-03T16:44:27.527Z,10.90
2022-11-03T16:46:29.148Z,10.90
2022-11-03T16:48:30.952Z,10.80
2022-11-03T16:50:32.723Z,10.90
2022-11-03T16:52:34.286Z,10.90
2022-11-03T16:54:35.970Z,10.90
2022-11-03T16:56:37.562Z,10.80
2022-11-03T16:58:39.291Z,10.80
2022-11-03T17:00:41.178Z,10.80
2022-11-03T17:02:43.154Z,10.80
2022-11-03T17:04:44.788Z,10.70
2022-11-03T17:06:46.466Z,10.80
2022-11-03T17:08:52.759Z,10.80
2022-11-03T17:10:55.237Z,10.80
2022-11-03T17:12:56.892Z,10.80
2022-11-03T17:14:58.595Z,10.80
2022-11-03T17:17:00.284Z,10.80
2022-11-03T17:19:01.871Z,10.90
2022-11-03T17:21:03.540Z,10.90
2022-11-03T17:23:05.257Z,10.90
2022-11-03T17:25:08.996Z,10.80
2022-11-03T17:27:22.849Z,10.80
2022-11-03T17:29:30.694Z,10.80
2022-11-03T17:31:32.295Z,10.90
2022-11-03T17:33:34.737Z,10.80
2022-11-03T17:35:39.209Z,10.80
2022-11-03T17:37:41.425Z,10.80
2022-11-03T17:39:43.175Z,10.70
2022-11-03T17:41:44.846Z,10.70
2022-11-03T17:43:46.507Z,10.70
2022-11-03T17:45:48.389Z,10.70
2022-11-03T17:47:50.478Z,10.70
2022-11-03T17:49:52.266Z,10.70
2022-11-03T17:51:53.864Z,10.70
2022-11-03T17:53:55.459Z,10.70
2022-11-03T17:56:27.764Z,10.70
2022-11-03T17:58:24.225Z,10.70
2022-11-03T18:00:26.187Z,10.70
2022-11-03T18:02:29.645Z,10.70
2022-11-03T18:04:31.306Z,10.80
2022-11-03T18:06:32.872Z,10.80
2022-11-03T18:08:34.465Z,10.80
2022-11-03T18:10:39.686Z,10.70
2022-11-03T18:13:01.505Z,10.80
2022-11-03T18:15:04.111Z,10.70
2022-11-03T18:17:06.019Z,10.80
2022-11-03T18:19:14.489Z,10.80
2022-11-03T18:21:17.081Z,10.80
2022-11-03T18:23:23.579Z,11.00
2022-11-03T18:25:25.137Z,11.00
2022-11-03T18:27:26.710Z,11.10
2022-11-03T18:29:28.325Z,11.00
2022-11-03T18:31:34.807Z,11.00
2022-11-03T18:33:36.372Z,11.00
2022-11-03T18:35:37.979Z,10.90
2022-11-03T18:37:39.959Z,10.90
2022-11-03T18:39:41.583Z,11.00
2022-11-03T18:41:43.972Z,11.10
2022-11-03T18:43:45.549Z,11.10
2022-11-03T18:45:47.464Z,11.00
2022-11-03T18:47:49.088Z,10.90
2022-11-03T18:49:50.660Z,10.90
2022-11-03T18:52:03.376Z,10.90
2022-11-03T18:54:06.468Z,10.80
2022-11-03T18:56:12.295Z,10.80
2022-11-03T18:58:21.107Z,10.80
2022-11-03T19:00:23.005Z,10.80
2022-11-03T19:02:28.331Z,10.80
2022-11-03T19:04:31.774Z,10.90
2022-11-03T19:06:33.708Z,10.90
2022-11-03T19:08:35.859Z,10.90
2022-11-03T19:10:37.443Z,10.90
2022-11-03T19:12:40.351Z,10.90
2022-11-03T19:14:44.967Z,10.80
2022-11-03T19:17:02.176Z,10.90
2022-11-03T19:19:11.384Z,10.90
2022-11-03T19:21:14.015Z,10.90
2022-11-03T19:23:15.936Z,10.90
2022-11-03T19:25:18.656Z,11.00
2022-11-03T19:27:25.446Z,11.00
2022-11-03T19:29:28.949Z,11.00
2022-11-03T19:31:35.330Z,11.10
2022-11-03T19:33:37.722Z,11.10
2022-11-03T19:35:40.194Z,11.00
2022-11-03T19:37:41.764Z,11.10
2022-11-03T19:39:43.428Z,11.00
2022-11-03T19:42:03.861Z,11.00
2022-11-03T19:44:08.907Z,11.00
2022-11-03T19:46:16.035Z,10.90
2022-11-03T19:48:24.351Z,10.80
2022-11-03T19:50:28.363Z,10.90
2022-11-03T19:52:30.690Z,10.90
2022-11-03T19:54:32.352Z,10.80
2022-11-03T19:56:33.929Z,10.80
2022-11-03T19:58:35.735Z,10.80
2022-11-03T20:00:37.363Z,10.80
2022-11-03T20:02:39.100Z,10.80
2022-11-03T20:04:46.716Z,10.80
2022-11-03T20:06:48.460Z,10.80
2022-11-03T20:08:50.416Z,10.80
2022-11-03T20:10:52.096Z,10.80
2022-11-03T20:12:53.724Z,10.80
2022-11-03T20:14:55.369Z,10.80
2022-11-03T20:17:10.189Z,10.70
2022-11-03T20:19:11.863Z,10.80
2022-11-03T20:21:17.542Z,10.80
2022-11-03T20:23:29.933Z,10.80
2022-11-03T20:25:35.354Z,10.80
2022-11-03T20:27:36.951Z,10.90
2022-11-03T20:29:39.546Z,10.90
2022-11-03T20:31:42.335Z,10.90
2022-11-03T20:33:44.149Z,10.90
2022-11-03T20:35:46.207Z,10.80
2022-11-03T20:37:50.227Z,10.80
2022-11-03T20:39:52.333Z,10.80
2022-11-03T20:41:56.509Z,10.80
2022-11-03T20:43:59.086Z,10.70
2022-11-03T20:46:01.277Z,10.80
2022-11-03T20:48:03.345Z,10.70
2022-11-03T20:50:05.036Z,10.70
2022-11-03T20:52:09.574Z,10.70
2022-11-03T20:54:18.555Z,10.70
2022-11-03T20:56:21.523Z,10.70
2022-11-03T20:58:23.217Z,10.80
2022-11-03T21:00:27.006Z,10.80
2022-11-03T21:02:28.865Z,10.70
2022-11-03T21:04:30.761Z,10.80
2022-11-03T21:06:32.541Z,10.90
2022-11-03T21:08:34.119Z,10.80
2022-11-03T21:10:35.913Z,10.80
2022-11-03T21:12:37.833Z,10.70
2022-11-03T21:14:39.902Z,10.70
2022-11-03T21:17:00.260Z,10.70
2022-11-03T21:19:20.192Z,10.70
2022-11-03T21:21:22.128Z,10.70
2022-11-03T21:23:24.957Z,10.70
2022-11-03T21:25:26.549Z,10.70
2022-11-03T21:27:28.101Z,10.60
2022-11-03T21:31:51.612Z,10.60
2022-11-03T21:33:53.173Z,10.70
2022-11-03T21:35:54.772Z,10.70
2022-11-03T21:37:56.330Z,10.70
2022-11-03T21:39:57.885Z,10.60
2022-11-03T21:42:17.914Z,10.70
2022-11-03T21:44:19.485Z,10.70
2022-11-03T21:46:21.069Z,10.70
2022-11-03T21:48:41.303Z,10.70
2022-11-03T21:50:43.157Z,10.70
2022-11-03T21:52:44.773Z,10.70
2022-11-03T21:54:46.386Z,10.70
2022-11-03T21:56:48.096Z,10.70
2022-11-03T21:58:49.666Z,10.70
2022-11-03T22:00:51.362Z,10.70
2022-11-03T22:02:52.953Z,10.70
2022-11-03T22:04:55.410Z,10.80
2022-11-03T22:06:58.042Z,10.70
2022-11-03T22:08:59.660Z,10.70
2022-11-03T22:11:22.737Z,10.70
2022-11-03T22:13:24.485Z,10.70
2022-11-03T22:15:44.755Z,10.70
2022-11-03T22:17:46.352Z,10.70
2022-11-03T22:20:06.467Z,10.70
2022-11-03T22:22:31.281Z,10.70
2022-11-03T22:24:51.561Z,10.70
2022-11-03T22:26:55.965Z,10.60
2022-11-03T22:29:16.868Z,10.70
2022-11-03T22:31:37.001Z,10.60
2022-11-03T22:33:58.559Z,10.70
2022-11-03T22:36:21.958Z,10.60
2022-11-03T22:38:43.751Z,10.60
2022-11-03T22:41:05.575Z,10.70
2022-11-03T22:43:26.744Z,10.70
2022-11-03T22:45:46.858Z,10.60
2022-11-03T22:47:48.457Z,10.50
2022-11-03T22:49:50.102Z,10.60
2022-11-03T22:51:51.673Z,10.50
2022-11-03T22:54:11.400Z,10.60
2022-11-03T22:56:13.355Z,10.50
2022-11-03T22:58:15.004Z,10.60
2022-11-03T23:00:17.019Z,10.60
2022-11-03T23:02:18.728Z,10.60
2022-11-03T23:04:20.638Z,10.60
2022-11-03T23:06:23.361Z,10.60
2022-11-03T23:08:25.007Z,10.50
2022-11-03T23:10:28.438Z,10.60
2022-11-03T23:12:30.980Z,10.50
2022-11-03T23:14:52.821Z,10.50
2022-11-03T23:16:54.481Z,10.50
2022-11-03T23:19:15.132Z,10.50
2022-11-03T23:21:16.704Z,10.50
2022-11-03T23:23:36.825Z,10.50
2022-11-03T23:25:38.434Z,10.50
2022-11-03T23:27:39.988Z,10.50
2022-11-03T23:29:41.609Z,10.50
2022-11-03T23:31:44.098Z,10.50
2022-11-03T23:33:45.769Z,10.50
2022-11-03T23:35:47.390Z,10.50
2022-11-03T23:37:48.965Z,10.50
2022-11-03T23:39:50.669Z,10.50
2022-11-03T23:41:52.437Z,10.60
2022-11-03T23:43:54.029Z,10.70
2022-11-03T23:46:14.085Z,10.60
2022-11-03T23:48:34.468Z,10.60
2022-11-03T23:50:37.999Z,10.60
2022-11-03T23:52:39.553Z,10.60
2022-11-03T23:54:41.112Z,10.50
2022-11-03T23:57:02.876Z,10.60
2022-11-03T23:59:05.693Z,10.60
